Time;durP1;ratioP1;P1;durP2;ratioP2;P2;SDS_P1;SDS_P2;PMS_P1;PMS_P2;Temp;Humidity;BMP_temperature;BMP_pressure;BME280_temperature;BME280_humidity;BME280_pressure;Samples;Min_cycle;Max_cycle;Signal;HPM_P1;HPM_P2
2021/03/20 00:00:30;;;;;;;15.03;8.30;;;-0.70;99.70;;;;;;5027898;28;20441;-70
2021/03/20 00:02:57;;;;;;;16.70;8.50;;;-0.70;99.70;;;;;;5027339;28;20472;-70
2021/03/20 00:05:24;;;;;;;19.50;8.50;;;-0.60;99.70;;;;;;5029441;28;20475;-69
2021/03/20 00:07:52;;;;;;;18.90;9.20;;;-0.60;99.70;;;;;;5010857;28;20898;-70
2021/03/20 00:10:22;;;;;;;19.47;9.40;;;-0.50;99.70;;;;;;5010340;28;20456;-70
2021/03/20 00:12:50;;;;;;;17.27;8.47;;;-0.50;99.70;;;;;;5023705;28;20449;-70
2021/03/20 00:15:19;;;;;;;18.30;8.47;;;-0.50;99.70;;;;;;5017060;28;20453;-70
2021/03/20 00:17:45;;;;;;;19.47;9.27;;;-0.50;99.70;;;;;;5028056;28;20974;-70
2021/03/20 00:20:15;;;;;;;21.17;9.30;;;-0.40;99.70;;;;;;5013194;28;20457;-70
2021/03/20 00:22:42;;;;;;;17.60;9.20;;;-0.30;99.70;;;;;;5009907;28;20547;-70
2021/03/20 00:25:09;;;;;;;17.20;8.37;;;-0.40;99.70;;;;;;5024338;28;20456;-70
2021/03/20 00:27:35;;;;;;;17.90;8.80;;;-0.40;99.70;;;;;;5029274;28;20464;-70
2021/03/20 00:30:04;;;;;;;18.40;9.20;;;-0.40;99.70;;;;;;5015416;28;20446;-70
2021/03/20 00:32:30;;;;;;;18.30;8.00;;;-0.50;99.70;;;;;;5009783;28;20473;-70
2021/03/20 00:34:56;;;;;;;17.33;8.50;;;-0.60;99.70;;;;;;5021818;28;20444;-69
2021/03/20 00:37:22;;;;;;;17.03;8.50;;;-0.60;99.70;;;;;;5029028;28;20468;-70
2021/03/20 00:39:49;;;;;;;20.87;8.90;;;-0.60;99.70;;;;;;5018326;28;20979;-70
2021/03/20 00:42:15;;;;;;;19.50;8.00;;;-0.60;99.70;;;;;;5009778;28;20489;-70
2021/03/20 00:44:41;;;;;;;19.10;8.67;;;-0.60;99.70;;;;;;5020592;28;20452;-70
2021/03/20 00:47:08;;;;;;;19.20;8.63;;;-0.70;99.70;;;;;;5028346;28;20837;-69
2021/03/20 00:49:34;;;;;;;19.00;8.90;;;-0.60;99.70;;;;;;5019906;28;20453;-70
2021/03/20 00:52:00;;;;;;;19.67;8.77;;;-0.70;99.70;;;;;;5009630;28;20519;-70
2021/03/20 00:54:27;;;;;;;19.97;9.17;;;-0.70;99.70;;;;;;5010700;28;20461;-70
2021/03/20 00:56:54;;;;;;;21.13;9.03;;;-0.70;99.70;;;;;;5008818;28;20525;-70
2021/03/20 00:59:20;;;;;;;18.60;9.20;;;-0.70;99.70;;;;;;5010886;28;20504;-70
2021/03/20 01:01:46;;;;;;;17.47;8.43;;;-0.70;99.70;;;;;;5011075;28;20453;-70
2021/03/20 01:04:12;;;;;;;16.83;8.17;;;-0.70;99.70;;;;;;5017763;28;20476;-69
2021/03/20 01:06:38;;;;;;;16.00;7.60;;;-0.70;99.70;;;;;;5032926;28;20444;-70
2021/03/20 01:09:06;;;;;;;18.33;8.30;;;-0.60;99.70;;;;;;5029414;28;20473;-69
2021/03/20 01:11:32;;;;;;;16.50;8.10;;;-0.60;99.70;;;;;;5013610;28;20468;-69
2021/03/20 01:14:00;;;;;;;15.57;7.83;;;-0.60;99.70;;;;;;5019412;28;20499;-69
2021/03/20 01:16:27;;;;;;;15.43;8.07;;;-0.50;99.70;;;;;;5031329;28;20444;-71
2021/03/20 01:18:54;;;;;;;17.40;7.40;;;-0.50;99.70;;;;;;5027138;28;20472;-71
2021/03/20 01:21:22;;;;;;;18.03;8.40;;;-0.50;99.70;;;;;;5013393;28;20445;-71
2021/03/20 01:23:48;;;;;;;16.50;7.97;;;-0.50;99.70;;;;;;5017012;28;20484;-70
2021/03/20 01:26:14;;;;;;;17.33;8.20;;;-0.50;99.70;;;;;;5032537;28;20455;-71
2021/03/20 01:28:41;;;;;;;18.97;8.43;;;-0.50;99.70;;;;;;5028480;28;20520;-71
2021/03/20 01:31:09;;;;;;;18.23;7.80;;;-0.40;99.70;;;;;;5013054;28;20450;-71
2021/03/20 01:33:35;;;;;;;17.20;8.17;;;-0.40;99.70;;;;;;5015449;28;20841;-71
2021/03/20 01:36:03;;;;;;;18.57;8.67;;;-0.40;99.70;;;;;;5032296;28;20445;-71
2021/03/20 01:38:29;;;;;;;22.13;9.30;;;-0.30;99.70;;;;;;5030918;28;20963;-71
2021/03/20 01:40:58;;;;;;;18.50;8.30;;;-0.30;99.70;;;;;;5012970;28;20453;-71
2021/03/20 01:43:27;;;;;;;18.40;8.83;;;-0.30;99.70;;;;;;5012638;28;20481;-70
2021/03/20 01:45:54;;;;;;;17.83;8.70;;;-0.20;99.70;;;;;;5015519;28;20498;-71
2021/03/20 01:48:24;;;;;;;22.43;9.70;;;-0.20;99.70;;;;;;5032246;28;20476;-71
2021/03/20 01:50:56;;;;;;;19.00;8.83;;;-0.30;99.70;;;;;;5013191;28;20449;-71
2021/03/20 01:53:33;;;;;;;18.37;8.57;;;-0.20;99.70;;;;;;5013061;28;20916;-71
2021/03/20 01:56:00;;;;;;;20.40;9.13;;;0.00;99.70;;;;;;5012739;28;20893;-71
2021/03/20 01:58:27;;;;;;;21.40;9.27;;;0.00;99.70;;;;;;5012310;28;20524;-70
2021/03/20 02:01:05;;;;;;;22.13;9.50;;;-0.10;99.70;;;;;;5013815;28;20449;-71
2021/03/20 02:03:32;;;;;;;21.23;8.70;;;-0.20;99.70;;;;;;5021349;28;20487;-71
2021/03/20 02:06:01;;;;;;;20.50;9.30;;;-0.10;99.70;;;;;;5032042;28;20448;-71
2021/03/20 02:08:27;;;;;;;18.70;8.77;;;0.00;99.70;;;;;;5031838;28;21023;-71
2021/03/20 02:10:58;;;;;;;19.37;8.43;;;-0.10;99.70;;;;;;5032213;28;20456;-71
2021/03/20 02:13:33;;;;;;;15.73;8.07;;;-0.10;99.70;;;;;;5031409;28;20452;-71
2021/03/20 02:16:04;;;;;;;18.13;8.37;;;-0.10;99.70;;;;;;5030422;28;20451;-70
2021/03/20 02:18:39;;;;;;;15.33;7.63;;;0.00;99.70;;;;;;5031554;28;20471;-70
2021/03/20 02:21:15;;;;;;;15.27;7.97;;;0.10;99.70;;;;;;5031448;28;20445;-70
2021/03/20 02:24:17;;;;;;;16.20;7.77;;;0.20;99.70;;;;;;5023641;28;20488;-71
2021/03/20 02:27:22;;;;;;;16.10;7.53;;;0.20;99.70;;;;;;5011370;28;20453;-70
2021/03/20 02:30:12;;;;;;;13.93;7.60;;;0.10;99.70;;;;;;5028743;28;20440;-71
2021/03/20 02:32:49;;;;;;;15.50;7.70;;;0.10;99.70;;;;;;5031971;28;20436;-70
2021/03/20 02:35:24;;;;;;;14.30;7.50;;;0.50;99.70;;;;;;5030799;28;20448;-71
2021/03/20 02:37:55;;;;;;;20.10;8.17;;;0.50;99.70;;;;;;5019672;28;20472;-71
2021/03/20 02:40:29;;;;;;;14.67;6.77;;;0.90;99.70;;;;;;5011878;28;20950;-70
2021/03/20 02:43:01;;;;;;;14.00;7.20;;;0.70;99.70;;;;;;5023053;28;20487;-71
2021/03/20 02:45:34;;;;;;;14.07;6.80;;;0.70;99.70;;;;;;5031067;28;20934;-71
2021/03/20 02:48:09;;;;;;;13.90;6.73;;;0.60;99.70;;;;;;5019202;28;20573;-70
2021/03/20 02:50:55;;;;;;;16.13;6.93;;;0.80;99.70;;;;;;5011593;28;20867;-70
2021/03/20 02:53:25;;;;;;;14.07;6.90;;;0.70;99.70;;;;;;5025575;28;20453;-71
2021/03/20 02:55:54;;;;;;;18.63;6.90;;;0.70;99.70;;;;;;5013400;28;20821;-71
2021/03/20 02:58:24;;;;;;;13.70;6.77;;;0.70;99.70;;;;;;5032768;28;20518;-70
2021/03/20 03:00:54;;;;;;;14.73;6.83;;;0.50;99.70;;;;;;5051287;28;20513;-71
2021/03/20 03:03:24;;;;;;;14.27;6.43;;;0.80;99.70;;;;;;5036265;28;20542;-71
2021/03/20 03:05:56;;;;;;;17.73;7.80;;;0.90;99.70;;;;;;5030572;28;20445;-70
2021/03/20 03:08:26;;;;;;;17.60;8.00;;;0.90;99.70;;;;;;5017531;28;21415;-70
2021/03/20 03:10:58;;;;;;;15.57;8.37;;;0.80;99.70;;;;;;5011135;28;20445;-70
2021/03/20 03:13:29;;;;;;;16.70;8.03;;;0.50;99.70;;;;;;5023351;28;20441;-70
2021/03/20 03:16:01;;;;;;;16.47;7.00;;;0.80;99.70;;;;;;5029259;28;20884;-71
2021/03/20 03:18:31;;;;;;;16.37;7.57;;;0.50;99.70;;;;;;5017780;28;20474;-70
2021/03/20 03:21:01;;;;;;;15.00;7.87;;;0.50;99.70;;;;;;5011013;28;20495;-71
2021/03/20 03:23:33;;;;;;;16.03;7.73;;;0.60;99.70;;;;;;5023797;28;20487;-70
2021/03/20 03:26:06;;;;;;;15.87;7.70;;;0.70;99.70;;;;;;5029898;28;20506;-70
2021/03/20 03:28:33;;;;;;;16.80;8.40;;;0.60;99.70;;;;;;5016492;28;20485;-71
2021/03/20 03:31:02;;;;;;;15.60;7.73;;;0.40;99.70;;;;;;5010738;28;21111;-71
2021/03/20 03:33:32;;;;;;;19.20;7.83;;;0.30;99.70;;;;;;5023288;28;20518;-70
2021/03/20 03:36:07;;;;;;;71.13;18.73;;;0.30;99.70;;;;;;5029970;28;20451;-70
2021/03/20 03:38:42;;;;;;;17.87;7.90;;;0.40;99.70;;;;;;5017328;28;20480;-70
2021/03/20 03:41:12;;;;;;;15.40;7.10;;;0.80;99.70;;;;;;5026701;28;20879;-70
2021/03/20 03:43:38;;;;;;;16.90;7.87;;;0.90;99.70;;;;;;5017383;28;20504;-70
2021/03/20 03:46:06;;;;;;;16.50;7.90;;;1.00;99.70;;;;;;5009925;28;20449;-70
2021/03/20 03:48:33;;;;;;;15.10;8.30;;;0.90;99.70;;;;;;5021314;28;20477;-70
2021/03/20 03:51:10;;;;;;;16.37;7.80;;;0.80;99.70;;;;;;5030252;28;20448;-70
2021/03/20 03:53:37;;;;;;;16.37;7.77;;;0.90;99.70;;;;;;5030254;28;20436;-71
2021/03/20 03:56:21;;;;;;;16.20;7.57;;;0.90;99.70;;;;;;5029464;28;20828;-71
2021/03/20 03:58:57;;;;;;;16.97;7.67;;;0.70;99.70;;;;;;5029860;28;21035;-70
2021/03/20 04:01:37;;;;;;;15.17;7.50;;;0.50;99.70;;;;;;5029325;28;20495;-70
2021/03/20 04:04:21;;;;;;;19.50;8.07;;;0.40;99.70;;;;;;5030011;28;20476;-71
2021/03/20 04:07:05;;;;;;;16.00;7.90;;;0.60;99.70;;;;;;5021716;28;20445;-71
2021/03/20 04:09:47;;;;;;;20.23;8.80;;;0.60;99.70;;;;;;5010389;28;20441;-71
2021/03/20 04:12:19;;;;;;;15.13;7.10;;;0.30;99.70;;;;;;5021640;28;20449;-70
2021/03/20 04:14:51;;;;;;;14.90;7.67;;;0.50;99.70;;;;;;5029818;28;20835;-70
2021/03/20 04:17:23;;;;;;;15.67;7.57;;;1.00;99.70;;;;;;5016178;28;20470;-70
2021/03/20 04:20:01;;;;;;;17.70;8.07;;;0.70;99.70;;;;;;5010180;28;20833;-70
2021/03/20 04:22:35;;;;;;;14.70;7.03;;;0.40;99.70;;;;;;5021875;28;20444;-70
2021/03/20 04:25:08;;;;;;;19.63;8.10;;;0.70;99.70;;;;;;5029255;28;20459;-71
2021/03/20 04:27:40;;;;;;;14.30;7.13;;;0.90;99.70;;;;;;5029572;28;20460;-71
2021/03/20 04:30:13;;;;;;;14.00;7.67;;;0.80;99.70;;;;;;5029682;28;20449;-71
2021/03/20 04:32:47;;;;;;;16.83;7.53;;;0.70;99.70;;;;;;5029845;28;20441;-70
2021/03/20 04:35:19;;;;;;;13.73;7.30;;;0.40;99.70;;;;;;5029088;28;20459;-71
2021/03/20 04:37:50;;;;;;;16.10;7.20;;;0.20;99.70;;;;;;5015787;28;20465;-70
2021/03/20 04:40:27;;;;;;;14.10;6.30;;;0.20;99.70;;;;;;5010003;28;20453;-70
2021/03/20 04:42:56;;;;;;;14.90;7.40;;;0.40;99.70;;;;;;5023412;28;20483;-70
2021/03/20 04:45:32;;;;;;;14.57;6.93;;;0.30;99.70;;;;;;5021959;28;20550;-70
2021/03/20 04:48:02;;;;;;;12.30;7.20;;;0.30;99.70;;;;;;5009519;28;20480;-71
2021/03/20 04:50:30;;;;;;;14.50;7.13;;;0.30;99.70;;;;;;5016495;28;20449;-71
2021/03/20 04:52:58;;;;;;;15.20;7.50;;;0.20;99.70;;;;;;5029330;28;20494;-70
2021/03/20 04:55:24;;;;;;;14.40;7.33;;;0.20;99.70;;;;;;5027239;28;20459;-71
2021/03/20 04:57:54;;;;;;;16.60;8.00;;;0.10;99.70;;;;;;5028969;28;20472;-70
2021/03/20 05:00:26;;;;;;;16.10;7.53;;;0.00;99.70;;;;;;5027705;28;20440;-70
2021/03/20 05:02:59;;;;;;;17.20;8.10;;;0.10;99.70;;;;;;5029247;28;20487;-70
2021/03/20 05:05:31;;;;;;;16.60;7.80;;;-0.20;99.70;;;;;;5023521;28;20835;-70
2021/03/20 05:08:01;;;;;;;15.57;8.30;;;-0.30;99.70;;;;;;5009311;28;20465;-70
2021/03/20 05:10:32;;;;;;;15.87;7.50;;;0.10;99.70;;;;;;5013795;28;20457;-70
2021/03/20 05:13:00;;;;;;;17.97;7.80;;;0.00;99.70;;;;;;5029154;28;20466;-70
2021/03/20 05:15:29;;;;;;;15.33;7.83;;;-0.20;99.70;;;;;;5026959;28;20448;-70
2021/03/20 05:17:56;;;;;;;17.67;8.40;;;-0.30;99.70;;;;;;5025328;28;20475;-70
2021/03/20 05:20:23;;;;;;;19.43;8.70;;;-0.40;99.70;;;;;;5009418;28;20473;-70
2021/03/20 05:22:50;;;;;;;18.70;8.13;;;-0.50;99.70;;;;;;5009845;28;20485;-70
2021/03/20 05:25:21;;;;;;;16.73;8.03;;;-0.50;99.70;;;;;;5008938;28;20441;-70
2021/03/20 05:27:47;;;;;;;17.90;8.60;;;-0.50;99.70;;;;;;5008988;28;20470;-70
2021/03/20 05:30:15;;;;;;;16.47;8.50;;;-0.40;99.70;;;;;;5024383;28;20449;-71
2021/03/20 05:32:41;;;;;;;14.30;7.30;;;-0.30;99.70;;;;;;5009292;28;20468;-70
2021/03/20 05:35:12;;;;;;;16.17;8.00;;;-0.40;99.70;;;;;;5026796;28;20478;-69
2021/03/20 05:37:41;;;;;;;17.07;8.70;;;-0.50;99.70;;;;;;5028630;28;20472;-70
2021/03/20 05:40:18;;;;;;;17.10;8.77;;;-0.50;99.70;;;;;;5017707;28;20461;-71
2021/03/20 05:43:02;;;;;;;25.53;10.13;;;-0.40;99.70;;;;;;5048688;28;21019;-71
2021/03/20 05:45:31;;;;;;;18.23;8.50;;;0.00;99.70;;;;;;5048405;28;20458;-71
2021/03/20 05:48:07;;;;;;;22.20;9.67;;;-0.10;99.70;;;;;;5030957;28;20476;-71
2021/03/20 05:50:44;;;;;;;16.80;8.57;;;-0.30;99.70;;;;;;5032622;28;20448;-69
2021/03/20 05:53:47;;;;;;;20.63;10.30;;;-0.30;99.70;;;;;;5012528;28;20452;-71
2021/03/20 05:56:20;;;;;;;23.33;12.70;;;-0.20;99.70;;;;;;5016071;28;20448;-71
2021/03/20 05:59:05;;;;;;;16.13;8.20;;;-0.30;99.70;;;;;;5032038;28;20460;-70
2021/03/20 06:01:43;;;;;;;15.90;8.40;;;-0.10;99.70;;;;;;5030495;28;20449;-70
2021/03/20 06:04:30;;;;;;;15.90;7.60;;;0.00;99.70;;;;;;5032180;28;20480;-70
2021/03/20 06:07:11;;;;;;;17.03;7.67;;;0.00;99.70;;;;;;5020462;28;20449;-70
2021/03/20 06:09:48;;;;;;;15.83;7.90;;;-0.20;99.70;;;;;;5012449;28;20958;-70
2021/03/20 06:12:38;;;;;;;16.63;7.83;;;-0.10;99.70;;;;;;5024479;28;20448;-70
2021/03/20 06:15:33;;;;;;;15.40;8.00;;;-0.10;99.70;;;;;;5031538;28;20942;-70
2021/03/20 06:18:43;;;;;;;16.00;8.10;;;0.00;99.70;;;;;;5014654;28;20526;-70
2021/03/20 06:21:16;;;;;;;12.17;6.60;;;0.30;99.70;;;;;;5006878;28;20532;-70
2021/03/20 06:24:17;;;;;;;13.27;7.00;;;0.30;99.70;;;;;;5027605;28;20488;-70
2021/03/20 06:26:46;;;;;;;13.80;6.67;;;0.40;99.70;;;;;;5030281;28;20796;-70
2021/03/20 06:29:16;;;;;;;12.90;6.17;;;0.40;99.70;;;;;;5031705;28;20514;-71
2021/03/20 06:31:46;;;;;;;11.00;6.10;;;0.50;99.70;;;;;;5025625;28;20460;-70
2021/03/20 06:34:16;;;;;;;13.87;6.37;;;0.40;99.70;;;;;;5012063;28;20442;-71
2021/03/20 06:36:47;;;;;;;13.70;6.00;;;0.40;99.70;;;;;;5012358;28;20441;-70
2021/03/20 06:39:18;;;;;;;13.50;6.07;;;0.40;99.70;;;;;;5011982;28;20457;-71
2021/03/20 06:41:49;;;;;;;11.40;5.70;;;0.40;99.70;;;;;;5030934;28;20445;-70
2021/03/20 06:44:27;;;;;;;11.77;5.90;;;0.60;99.70;;;;;;5031253;28;20484;-71
2021/03/20 06:46:53;;;;;;;10.97;5.70;;;0.70;99.70;;;;;;5030585;28;20448;-71
2021/03/20 06:49:25;;;;;;;11.77;5.90;;;0.60;99.70;;;;;;5029971;28;20631;-70
2021/03/20 06:51:53;;;;;;;15.13;6.77;;;0.60;99.70;;;;;;5011687;28;20860;-71
2021/03/20 06:54:21;;;;;;;13.03;6.73;;;0.60;99.70;;;;;;5011592;28;20449;-71
2021/03/20 06:56:49;;;;;;;11.40;5.97;;;0.70;99.70;;;;;;5016613;28;20464;-70
2021/03/20 06:59:16;;;;;;;12.93;5.70;;;0.90;99.70;;;;;;5031098;28;20859;-71
2021/03/20 07:01:51;;;;;;;8.93;5.10;;;0.90;99.70;;;;;;5031258;28;20456;-71
2021/03/20 07:04:48;;;;;;;9.40;5.07;;;1.00;99.70;;;;;;5031208;28;20860;-71
2021/03/20 07:07:25;;;;;;;11.77;5.70;;;1.10;99.70;;;;;;5030293;28;20870;-71
2021/03/20 07:09:53;;;;;;;9.47;4.77;;;0.90;99.70;;;;;;5031153;28;20448;-71
2021/03/20 07:12:21;;;;;;;8.23;5.07;;;0.90;99.70;;;;;;5031015;28;20448;-71
2021/03/20 07:14:52;;;;;;;9.83;5.00;;;1.00;99.70;;;;;;5030775;28;20960;-70
2021/03/20 07:17:30;;;;;;;11.90;5.20;;;0.80;99.70;;;;;;5028483;28;20989;-70
2021/03/20 07:19:58;;;;;;;18.17;7.47;;;0.80;99.70;;;;;;5025653;28;20586;-70
2021/03/20 07:22:29;;;;;;;8.10;4.63;;;1.00;99.70;;;;;;5018958;28;20452;-70
2021/03/20 07:24:55;;;;;;;11.23;4.53;;;0.90;99.70;;;;;;5020413;28;20484;-70
2021/03/20 07:27:30;;;;;;;10.70;5.20;;;1.00;99.70;;;;;;5020037;28;20472;-71
2021/03/20 07:29:58;;;;;;;10.60;4.70;;;1.20;99.70;;;;;;5009353;28;20452;-71
2021/03/20 07:32:36;;;;;;;10.07;4.97;;;1.10;99.70;;;;;;5021672;28;20958;-70
2021/03/20 07:35:17;;;;;;;7.40;4.13;;;1.20;99.70;;;;;;5028610;28;20552;-70
2021/03/20 07:37:43;;;;;;;10.27;4.60;;;1.00;99.70;;;;;;5015163;28;20527;-70
2021/03/20 07:40:14;;;;;;;6.80;4.10;;;1.30;99.70;;;;;;5009599;28;20450;-70
2021/03/20 07:42:42;;;;;;;9.63;4.50;;;1.50;99.70;;;;;;5010838;28;20449;-70
2021/03/20 07:45:26;;;;;;;12.03;5.00;;;1.40;99.70;;;;;;5017541;28;20444;-70
2021/03/20 07:48:03;;;;;;;9.63;4.50;;;1.30;99.70;;;;;;5024261;28;20496;-71
2021/03/20 07:50:33;;;;;;;9.13;4.50;;;1.30;99.70;;;;;;5015322;28;20482;-71
2021/03/20 07:53:21;;;;;;;10.70;4.60;;;1.60;99.70;;;;;;5017220;28;20771;-70
2021/03/20 07:56:01;;;;;;;9.50;5.03;;;1.70;99.20;;;;;;5023363;28;20523;-70
2021/03/20 07:58:37;;;;;;;8.40;4.60;;;2.40;98.90;;;;;;5030233;28;21000;-71
2021/03/20 08:01:08;;;;;;;12.67;4.73;;;2.80;97.00;;;;;;5013098;28;20838;-69
2021/03/20 08:03:50;;;;;;;8.60;4.50;;;3.00;95.50;;;;;;5034122;28;20610;-71
2021/03/20 08:06:18;;;;;;;9.50;4.53;;;3.60;93.90;;;;;;5034301;28;20440;-71
2021/03/20 08:08:44;;;;;;;6.80;4.33;;;4.20;92.60;;;;;;5041744;28;20838;-71
2021/03/20 08:11:33;;;;;;;9.43;5.17;;;4.90;89.60;;;;;;5048049;28;20448;-70
2021/03/20 08:14:05;;;;;;;8.83;4.43;;;4.80;90.10;;;;;;5049511;28;20444;-71
2021/03/20 08:16:31;;;;;;;7.80;4.60;;;4.00;89.80;;;;;;5045874;28;20457;-70
2021/03/20 08:18:59;;;;;;;9.83;4.77;;;3.80;92.00;;;;;;5048671;28;21186;-71
2021/03/20 08:21:56;;;;;;;7.37;3.97;;;3.90;90.20;;;;;;5035696;28;20461;-71
2021/03/20 08:24:38;;;;;;;7.57;4.20;;;3.40;90.30;;;;;;5008535;28;20942;-70
2021/03/20 08:27:14;;;;;;;7.30;4.50;;;3.70;91.40;;;;;;5016384;28;20453;-70
2021/03/20 08:29:51;;;;;;;7.47;4.50;;;3.50;92.90;;;;;;5012600;28;20452;-71
2021/03/20 08:32:30;;;;;;;7.50;4.63;;;3.40;95.30;;;;;;5009393;28;20445;-70
2021/03/20 08:35:05;;;;;;;10.43;4.63;;;3.30;92.70;;;;;;5007854;28;20441;-71
2021/03/20 08:37:58;;;;;;;8.13;4.83;;;3.30;93.10;;;;;;5008921;28;20465;-70
2021/03/20 08:40:46;;;;;;;8.10;4.60;;;3.80;92.20;;;;;;5011477;28;20854;-71
2021/03/20 08:43:42;;;;;;;8.03;4.13;;;3.90;89.90;;;;;;5009447;28;20512;-71
2021/03/20 08:46:20;;;;;;;7.00;3.73;;;4.00;91.50;;;;;;5020788;28;20456;-71
2021/03/20 08:48:55;;;;;;;5.60;3.70;;;4.40;87.00;;;;;;5028428;28;20484;-70
2021/03/20 08:51:35;;;;;;;8.70;3.87;;;5.00;88.20;;;;;;5028171;28;20498;-70
2021/03/20 08:54:13;;;;;;;8.07;4.33;;;4.90;83.60;;;;;;5028809;28;20441;-70
2021/03/20 08:57:04;;;;;;;6.43;3.70;;;4.80;85.40;;;;;;5028179;28;20444;-71
2021/03/20 08:59:34;;;;;;;8.13;4.23;;;4.70;84.70;;;;;;5005857;28;20830;-70
2021/03/20 09:02:14;;;;;;;5.93;4.10;;;4.80;84.60;;;;;;5009218;28;20437;-70
2021/03/20 09:04:40;;;;;;;7.93;4.50;;;4.00;84.80;;;;;;5015769;28;20534;-70
2021/03/20 09:07:14;;;;;;;7.43;4.03;;;3.50;87.90;;;;;;5016984;28;20473;-69
2021/03/20 09:09:45;;;;;;;8.30;4.30;;;3.20;87.00;;;;;;5014844;28;20458;-70
2021/03/20 09:12:20;;;;;;;8.57;4.10;;;3.50;87.70;;;;;;5023767;28;20637;-70
2021/03/20 09:14:47;;;;;;;5.80;3.43;;;3.60;84.10;;;;;;5026914;28;20448;-70
2021/03/20 09:17:18;;;;;;;6.03;3.27;;;4.00;81.90;;;;;;5026938;28;20468;-71
2021/03/20 09:19:51;;;;;;;4.20;3.00;;;4.30;80.20;;;;;;5027775;28;20448;-71
2021/03/20 09:22:24;;;;;;;5.20;3.30;;;4.60;77.60;;;;;;5021146;28;21007;-70
2021/03/20 09:24:53;;;;;;;4.93;3.47;;;4.90;78.50;;;;;;5026274;28;20489;-71
2021/03/20 09:27:57;;;;;;;5.97;3.63;;;5.10;77.90;;;;;;5017867;28;20481;-71
2021/03/20 09:30:31;;;;;;;6.67;3.13;;;5.40;77.30;;;;;;5023993;28;20625;-71
2021/03/20 09:32:58;;;;;;;4.60;2.90;;;5.50;76.80;;;;;;5026441;28;20487;-71
2021/03/20 09:35:36;;;;;;;4.90;3.10;;;5.20;74.70;;;;;;5025765;28;20453;-71
2021/03/20 09:38:03;;;;;;;4.87;2.90;;;5.20;74.10;;;;;;5029878;28;20472;-71
2021/03/20 09:40:49;;;;;;;4.60;3.10;;;6.10;73.40;;;;;;5030865;28;20487;-71
2021/03/20 09:43:39;;;;;;;5.33;3.07;;;6.40;71.70;;;;;;5019566;28;20571;-71
2021/03/20 09:46:48;;;;;;;6.90;3.10;;;7.20;70.30;;;;;;5027559;28;20475;-71
2021/03/20 09:49:57;;;;;;;6.13;3.17;;;6.60;70.70;;;;;;5023043;28;20448;-71
2021/03/20 09:52:50;;;;;;;3.70;2.93;;;7.00;69.20;;;;;;5021493;28;20444;-72
2021/03/20 09:55:50;;;;;;;5.87;2.90;;;6.70;68.40;;;;;;4945397;28;20454;-72
2021/03/20 09:58:41;;;;;;;5.47;3.43;;;7.20;73.80;;;;;;5031977;28;20577;-71
2021/03/20 10:01:12;;;;;;;5.40;3.30;;;7.80;69.00;;;;;;5019459;28;20831;-71
2021/03/20 10:03:51;;;;;;;5.43;3.33;;;7.90;69.90;;;;;;5027979;28;20483;-72
2021/03/20 10:06:25;;;;;;;4.07;3.00;;;8.00;66.50;;;;;;5024151;28;20598;-71
2021/03/20 10:09:19;;;;;;;4.60;3.30;;;7.00;70.00;;;;;;5022898;28;20567;-71
2021/03/20 10:12:16;;;;;;;5.60;3.50;;;6.40;70.00;;;;;;5016299;28;20456;-71
2021/03/20 10:14:58;;;;;;;6.00;3.67;;;6.20;75.10;;;;;;5020882;28;20440;-71
2021/03/20 10:17:28;;;;;;;5.70;3.50;;;5.70;75.80;;;;;;5010030;28;20465;-71
2021/03/20 10:20:12;;;;;;;5.67;2.90;;;5.40;76.50;;;;;;5027073;28;20452;-71
2021/03/20 10:22:48;;;;;;;5.10;3.37;;;5.00;76.90;;;;;;5017851;28;20503;-71
2021/03/20 10:25:15;;;;;;;5.27;3.20;;;4.90;74.50;;;;;;5021650;28;20857;-71
2021/03/20 10:27:50;;;;;;;7.30;3.43;;;4.40;75.60;;;;;;5030088;28;20491;-71
2021/03/20 10:30:19;;;;;;;6.50;3.00;;;4.50;74.10;;;;;;5031434;28;20466;-71
2021/03/20 10:32:58;;;;;;;6.37;2.90;;;4.20;74.70;;;;;;5030227;28;20436;-71
2021/03/20 10:35:25;;;;;;;4.70;3.17;;;4.00;75.30;;;;;;5029445;28;20590;-71
2021/03/20 10:37:52;;;;;;;4.50;2.90;;;3.80;74.80;;;;;;5030687;28;20759;-71
2021/03/20 10:40:23;;;;;;;4.80;3.17;;;3.90;75.40;;;;;;5030421;28;20448;-71
2021/03/20 10:42:53;;;;;;;5.93;3.27;;;3.70;73.90;;;;;;5030948;28;20445;-70
2021/03/20 10:45:32;;;;;;;7.60;3.20;;;4.00;78.50;;;;;;5038629;28;20444;-71
2021/03/20 10:48:07;;;;;;;6.50;3.33;;;4.00;76.80;;;;;;5024739;28;20675;-71
2021/03/20 10:50:36;;;;;;;6.83;3.47;;;4.20;80.00;;;;;;5016188;28;20440;-71
2021/03/20 10:53:05;;;;;;;5.40;3.30;;;4.30;78.90;;;;;;5024361;28;20457;-71
2021/03/20 10:55:37;;;;;;;6.90;3.40;;;3.80;75.50;;;;;;5026233;28;20456;-70
2021/03/20 10:58:07;;;;;;;8.33;3.40;;;3.70;78.80;;;;;;5020512;28;20501;-71
2021/03/20 11:00:41;;;;;;;5.90;3.23;;;3.60;78.80;;;;;;5026091;28;20461;-71
2021/03/20 11:03:10;;;;;;;6.87;2.87;;;3.70;80.70;;;;;;5017199;28;20449;-71
2021/03/20 11:05:37;;;;;;;5.00;3.40;;;4.20;82.10;;;;;;5018259;28;20452;-71
2021/03/20 11:08:24;;;;;;;5.07;3.00;;;4.30;79.60;;;;;;5030639;28;21040;-71
2021/03/20 11:10:52;;;;;;;5.67;3.30;;;4.10;79.10;;;;;;5029773;28;20976;-71
2021/03/20 11:13:33;;;;;;;4.60;2.40;;;4.30;80.70;;;;;;5030415;28;20942;-71
2021/03/20 11:16:10;;;;;;;5.43;3.10;;;4.00;79.10;;;;;;5029667;28;20445;-71
2021/03/20 11:18:40;;;;;;;5.73;3.20;;;4.10;79.10;;;;;;5024254;28;20461;-71
2021/03/20 11:21:24;;;;;;;5.87;3.30;;;4.10;76.50;;;;;;5011604;28;20449;-71
2021/03/20 11:23:55;;;;;;;6.13;2.70;;;3.90;75.60;;;;;;5021573;28;20489;-71
2021/03/20 11:26:31;;;;;;;4.07;2.53;;;3.60;74.50;;;;;;5023146;28;20993;-71
2021/03/20 11:29:00;;;;;;;6.30;3.17;;;3.60;79.30;;;;;;5026041;28;20460;-70
2021/03/20 11:31:27;;;;;;;4.77;2.77;;;4.10;81.00;;;;;;5030662;28;20833;-71
2021/03/20 11:33:54;;;;;;;5.83;3.00;;;4.10;79.30;;;;;;5029572;28;20476;-70
2021/03/20 11:36:24;;;;;;;5.40;2.93;;;3.90;77.80;;;;;;5032634;28;21012;-70
2021/03/20 11:38:51;;;;;;;4.70;2.80;;;3.90;78.70;;;;;;5036987;28;20455;-70
2021/03/20 11:41:25;;;;;;;7.70;3.17;;;4.20;79.10;;;;;;5037264;28;20435;-71
2021/03/20 11:44:01;;;;;;;4.43;2.77;;;3.90;77.30;;;;;;5037959;28;20483;-70
2021/03/20 11:46:33;;;;;;;5.30;3.10;;;3.90;76.20;;;;;;5036474;28;20877;-70
2021/03/20 11:49:02;;;;;;;4.70;2.90;;;3.60;74.00;;;;;;5037953;28;20460;-71
2021/03/20 11:51:31;;;;;;;5.17;3.17;;;3.40;73.90;;;;;;5039353;28;20451;-71
2021/03/20 11:54:00;;;;;;;4.73;2.70;;;3.60;77.50;;;;;;5035155;28;20716;-72
2021/03/20 11:56:30;;;;;;;6.43;3.10;;;3.80;79.20;;;;;;5019368;28;22037;-70
2021/03/20 11:58:57;;;;;;;4.60;2.90;;;4.00;77.90;;;;;;5027591;28;20464;-71
2021/03/20 12:01:45;;;;;;;6.80;3.07;;;3.90;76.60;;;;;;5037043;28;20452;-71
2021/03/20 12:04:20;;;;;;;8.20;3.00;;;3.90;75.10;;;;;;5033723;28;20481;-71
2021/03/20 12:06:47;;;;;;;5.50;2.87;;;4.20;77.00;;;;;;5036344;28;20445;-70
2021/03/20 12:09:33;;;;;;;5.83;2.97;;;4.40;76.80;;;;;;5035989;28;20833;-69
2021/03/20 12:12:00;;;;;;;4.97;2.50;;;4.30;75.40;;;;;;5036630;28;20527;-69
2021/03/20 12:14:32;;;;;;;6.20;3.30;;;4.20;74.00;;;;;;5037903;28;20946;-69
2021/03/20 12:17:05;;;;;;;5.60;3.03;;;4.10;78.70;;;;;;5032476;28;20440;-69
2021/03/20 12:19:32;;;;;;;10.80;4.53;;;4.20;79.10;;;;;;5036261;28;20440;-69
2021/03/20 12:22:06;;;;;;;6.30;3.43;;;4.30;76.40;;;;;;5033801;28;20440;-69
2021/03/20 12:24:42;;;;;;;5.90;3.13;;;4.10;75.40;;;;;;5035136;28;20506;-69
2021/03/20 12:27:30;;;;;;;5.90;3.57;;;4.20;77.80;;;;;;5038925;28;20513;-69
2021/03/20 12:30:00;;;;;;;5.50;3.43;;;4.30;77.70;;;;;;5033876;28;20460;-69
2021/03/20 12:32:42;;;;;;;5.93;3.20;;;4.30;76.70;;;;;;5034151;28;20451;-69
2021/03/20 12:35:22;;;;;;;7.90;3.40;;;4.30;79.80;;;;;;5037156;28;21000;-69
2021/03/20 12:38:03;;;;;;;5.53;3.17;;;4.30;76.10;;;;;;5020830;28;20479;-69
2021/03/20 12:40:30;;;;;;;5.57;3.30;;;4.40;78.50;;;;;;5029353;28;20533;-69
2021/03/20 12:42:58;;;;;;;5.93;3.60;;;4.10;75.00;;;;;;5028575;28;20820;-69
2021/03/20 12:45:26;;;;;;;5.70;3.43;;;4.30;77.70;;;;;;5029126;28;20441;-69
2021/03/20 12:47:54;;;;;;;5.53;3.40;;;4.50;78.40;;;;;;5028288;28;20476;-69
2021/03/20 12:50:20;;;;;;;7.30;3.57;;;4.30;74.60;;;;;;5029526;28;20449;-69
2021/03/20 12:52:46;;;;;;;8.30;3.40;;;4.40;77.40;;;;;;5028925;28;20445;-69
2021/03/20 12:55:13;;;;;;;5.87;3.23;;;4.40;74.20;;;;;;5029152;28;20440;-69
2021/03/20 12:57:40;;;;;;;4.70;3.03;;;4.30;73.80;;;;;;5034239;28;20476;-69
2021/03/20 13:00:08;;;;;;;7.70;3.53;;;4.20;74.10;;;;;;5035923;28;20456;-69
2021/03/20 13:02:35;;;;;;;6.70;3.40;;;4.30;75.20;;;;;;5028805;28;20843;-69
2021/03/20 13:05:04;;;;;;;6.33;3.40;;;4.20;75.80;;;;;;5036788;28;20889;-70
2021/03/20 13:07:31;;;;;;;6.60;3.57;;;4.30;76.10;;;;;;5035227;28;20870;-69
2021/03/20 13:09:57;;;;;;;6.53;3.53;;;4.40;77.60;;;;;;5018551;28;21017;-70
2021/03/20 13:12:23;;;;;;;5.90;3.70;;;4.10;71.80;;;;;;5018753;28;20445;-69
2021/03/20 13:14:49;;;;;;;6.60;3.87;;;4.10;74.40;;;;;;5028186;28;20465;-69
2021/03/20 13:17:16;;;;;;;7.50;3.83;;;4.20;77.00;;;;;;5033900;28;20989;-69
2021/03/20 13:19:42;;;;;;;10.53;4.80;;;4.50;79.30;;;;;;5034493;28;20468;-70